ROMMA est une association bénévole à but non lucratif. Votre soutien est indispensable : ADHERER à ROMMA ou FAIRE un DON

Chamrousse - (38, Isère)

Massif de Belledonne (1800 m)   Longitude: 05° 52' 28" E   Latitude: 45° 06' 28" N Station partenaire n°3
 

Détail journalier du     <<     >>

Température Precipitation Humidité Pression Vent Dir Rafale Dir. rafale
Heure (°C) (mm) (%) (hPa) (km/h) (km/h)
01:00 -0.308310113SSE15E
02:00 -0.408010118SSE15SSE
03:00 -0.208310112SSE10SSE
04:00 -0.408210111SSE10SSE
05:00 -1.10901012010SSE
06:00 -1.208910123SSE13SSE
07:00 -1.108310113SSE11SSE
08:00 -0.107510126SSE16SSE
09:00 0.408810131SE15SE
10:00 1.2085101306SE
11:00 2.905110142SE15SE
12:00 3.404910146SE16SO
13:00 4.305810145S18SSO
14:00 4.905710146SSO21S
15:00 5.505010146SSO32SSO
16:00 5.505910154SO23OSO
17:00 5.905510156SO23SO
18:00 6.605210157SSO24SSO
19:00 6.605210166OSO21SO
20:00 5.205310173O15ONO
21:00 4.50571017010SO
22:00 4.105810181SSE10S
23:00 3.806010182SSE11SE
minuit 3.8053101813E21ENE

Graphique du 01-05-2008

 

Serveur OMMA